Latest Coastal Weather Observations for Hamilton Island

IDQ60701

Issued at 9:35 pm EST Tuesday 2 September 2014 (issued every 10 minutes, with the page automatically refreshed every 10 minutes)

About coastal observations | Map of coastal stations | Coastal observations for QLD | Marine services | Other Formats
Station Details ID: 033106 Name: HAMILTON ISLAND AIRPORT Lat: -20.37 Lon: 148.95 Height: 58.66 m
Data from the previous 72 hours. | See also: Recent months at Hamilton Island
Date/Time
EST
Temp

°C
Wind Pressure Rain
since 9am
mm
Weather Cloud Vis
km
Sea
Height
m
Swell
Dir
 
Speed
knots
Gust
knots
hPa Trend Height
m
Period
s
Dir
02/09:30pm 20.9 NNW 18 23 1014.7 - 0.0 - - 10 - - - -
02/09:00pm 20.9 NNW 17 21 1014.6 - 0.0 - - 10 - - - -
02/08:30pm 21.0 NNW 19 24 1014.7 - 0.0 - - 10 - - - -
02/08:00pm 21.1 NNW 19 22 1014.7 - 0.0 - - 10 - - - -
02/07:30pm 21.1 NW 19 22 1014.6 - 0.0 - - 10 - - - -
02/07:00pm 21.0 NNW 17 21 1014.2 - 0.0 - - 10 - - - -
02/06:30pm 21.0 NNW 17 20 1013.8 - 0.0 - - 10 - - - -
02/06:00pm 21.1 NW 17 21 1013.4 - 0.0 - - 10 - - - -
02/05:30pm 21.6 NNW 19 21 1013.5 - 0.0 - - 10 - - - -
02/05:00pm 22.1 NNW 19 23 1013.6 - 0.0 - - - - - - -
02/04:30pm 22.7 NW 16 21 1013.3 - 0.0 - - 10 - - - -
02/04:00pm 23.0 NNW 17 21 1013.1 - 0.0 - - 10 - - - -
02/03:30pm 23.2 NNW 14 17 1013.4 - 0.0 - - 10 - - - -
02/03:00pm 23.9 NNW 13 16 1013.3 - 0.0 - - 10 - - - -
02/02:30pm 23.8 NNW 12 15 1014.1 - 0.0 - - 10 - - - -
02/02:00pm 23.4 NW 13 17 1014.5 - 0.0 - - 10 - - - -
02/01:30pm 24.6 NW 10 13 1015.1 - 0.0 - - 10 - - - -
02/01:00pm 24.2 NNW 11 14 1015.5 - 0.0 - - 10 - - - -
02/12:30pm 23.8 NNW 12 14 1016.0 - 0.0 - - 10 - - - -
02/12:00pm 23.5 NNW 12 15 1016.3 - 0.0 - - 10 - - - -
02/11:30am 23.3 NNW 12 14 1017.1 - 0.0 - - 10 - - - -
02/11:00am 23.2 NNW 11 13 1017.8 - 0.0 - - 10 - - - -
02/10:30am 23.1 NNW 10 12 1018.1 - 0.0 - - 10 - - - -
02/10:00am 22.6 NW 9 11 1018.5 - 0.0 - - 10 - - - -
02/09:30am 22.2 NNW 7 9 1018.7 - 0.0 - - 10 - - - -
02/09:00am 21.6 NW 6 7 1018.6 - 0.0 - - 10 - - - -
02/08:30am 20.8 NNW 3 5 1018.8 - 0.0 - - 10 - - - -
02/08:00am 19.8 CALM 0 0 1018.6 - 0.0 - - 10 - - - -
02/07:30am 19.1 WSW 1 4 1018.4 - 0.0 - - 10 - - - -
02/07:00am 18.5 CALM 0 0 1018.4 - 0.0 - - 10 - - - -
02/06:30am 18.0 CALM 0 0 1018.2 - 0.0 - - 10 - - - -
02/06:00am 17.8 CALM 0 0 1017.6 - 0.0 - - 10 - - - -
02/05:30am 17.9 CALM 0 0 1017.7 - 0.0 - - 10 - - - -
02/05:00am 18.0 WNW 3 4 1017.7 - 0.0 - - 10 - - - -
02/04:30am 18.0 NW 4 4 1017.6 - 0.0 - - 10 - - - -
02/04:00am 18.0 NW 4 5 1017.5 - 0.0 - - 10 - - - -
02/03:30am 18.1 WNW 3 4 1017.7 - 0.0 - - 10 - - - -
02/03:00am 18.1 WNW 4 4 1017.6 - 0.0 - - 10 - - - -
02/02:30am 18.2 NW 5 5 1018.0 - 0.0 - - 10 - - - -
02/02:00am 18.1 NNW 6 6 1018.1 - 0.0 - - 10 - - - -
02/01:30am 18.1 NNW 5 6 1018.5 - 0.0 - - 10 - - - -
02/01:00am 18.4 W 3 4 1018.8 - 0.0 - Partly cloudy 10 - - - -
02/12:30am 18.4 CALM 0 0 1018.6 - 0.0 - - 10 - - - -
02/12:00am 18.3 NNW 2 4 1018.4 - 0.0 - - 10 - - - -
 
Date/Time
EST
Temp

°C
Wind Pressure Rain
since 9am
mm
Weather Cloud Vis
km
Sea
Height
m
Swell
Dir
 
Speed
knots
Gust
knots
hPa Trend Height
m
Period
s
Dir
01/11:30pm 18.3 NE 1 4 1018.7 - 0.0 - - 10 - - - -
01/11:00pm 18.4 CALM 0 1 1018.8 - 0.0 - - 10 - - - -
01/10:30pm 18.5 NNE 2 5 1018.7 - 0.0 - - 10 - - - -
01/10:00pm 18.5 N 3 4 1018.6 - 0.0 - - 10 - - - -
01/09:30pm 19.5 NE 4 6 1018.7 - 0.0 - - 10 - - - -
01/09:00pm 19.4 NE 5 6 1018.5 - 0.0 - - 10 - - - -
01/08:30pm 19.4 NNE 1 5 1018.7 - 0.0 - - 10 - - - -
01/08:00pm 19.8 ENE 6 7 1018.3 - 0.0 - - 10 - - - -
01/07:30pm 20.0 ENE 7 9 1017.9 - 0.0 - - 10 - - - -
01/07:00pm 20.0 E 7 9 1017.7 - 0.0 - - 10 - - - -
01/06:30pm 19.9 E 7 9 1017.5 - 0.0 - - 10 - - - -
01/06:00pm 20.3 E 10 11 1017.1 - 0.0 - - 10 - - - -
01/05:30pm 20.5 E 9 11 1016.9 - 0.0 - - 10 - - - -
01/05:00pm 20.8 E 12 14 1016.6 - 0.0 - - 10 - - - -
01/04:30pm 20.9 E 10 13 1016.7 - 0.0 - - 10 - - - -
01/04:00pm 21.1 ESE 10 12 1016.7 - 0.0 - - 10 - - - -
01/03:30pm 21.3 ESE 10 12 1016.9 - 0.0 - - 10 - - - -
01/03:00pm 21.6 E 11 13 1016.7 - 0.0 - - 10 - - - -
01/02:30pm 21.9 ESE 10 12 1017.1 - 0.0 - - 10 - - - -
01/02:00pm 22.7 ESE 9 11 1017.6 - 0.0 - - 10 - - - -
01/01:30pm 21.8 SSE 7 9 1018.1 - 0.0 - Partly cloudy 10 - - - -
01/01:00pm 22.1 SSE 8 10 1018.3 - 0.0 - Partly cloudy 10 - - - -
01/12:30pm 21.5 SSE 8 9 1018.8 - 0.0 - - 10 - - - -
01/12:00pm 21.6 SSE 8 10 1019.0 - 0.0 - - 10 - - - -
01/11:30am 21.5 SSE 8 10 1019.7 - 0.0 - - - - - - -
01/11:00am 21.6 SSE 8 11 1019.7 - 0.0 - - 10 - - - -
01/10:30am 21.4 SSE 10 13 1019.8 - 0.0 - - 10 - - - -
01/10:00am 21.3 SSE 10 12 1020.1 - 0.0 - - 10 - - - -
01/09:30am 21.0 SSE 10 13 1020.2 - 0.0 - - 10 - - - -
01/09:00am 20.8 SSE 11 13 1020.0 - 0.0 - - 10 - - - -
01/08:30am 20.6 SSE 10 13 1019.8 - 0.0 - - 10 - - - -
01/08:00am 20.0 SSE 10 13 1019.4 - 0.0 - - 10 - - - -
01/07:30am 20.3 SSE 10 12 1019.1 - 0.0 - - 10 - - - -
01/07:00am 19.7 ENE 2 6 1018.8 - 0.0 - - 10 - - - -
01/06:30am 19.2 E 5 8 1018.4 - 0.0 - - 10 - - - -
01/06:00am 19.1 E 7 9 1017.8 - 0.0 - - 10 - - - -
01/05:30am 19.1 E 7 9 1017.7 - 0.0 - - 10 - - - -
01/05:00am 19.0 E 8 10 1017.5 - 0.0 - - 10 - - - -
01/04:30am 19.1 E 7 9 1017.5 - 0.0 - - 10 - - - -
01/04:00am 18.5 E 6 8 1017.7 - 0.0 - - 10 - - - -
01/03:30am 18.9 E 6 8 1017.6 - 0.0 - - 10 - - - -
01/03:00am 19.3 E 5 7 1017.5 - 0.0 - - 10 - - - -
01/02:30am 19.0 E 5 8 1017.8 - 0.0 - - 10 - - - -
01/02:00am 19.3 E 7 9 1017.9 - 0.0 - - 10 - - - -
01/01:30am 19.1 E 6 8 1017.7 - 0.0 - - 10 - - - -
01/01:00am 18.6 ENE 6 8 1017.9 - 0.0 - - 10 - - - -
01/12:30am 19.2 ENE 7 9 1018.2 - 0.0 - - 10 - - - -
01/12:00am 18.8 ENE 5 7 1018.1 - 0.0 - - 10 - - - -
 
Date/Time
EST
Temp

°C
Wind Pressure Rain
since 9am
mm
Weather Cloud Vis
km
Sea
Height
m
Swell
Dir
 
Speed
knots
Gust
knots
hPa Trend Height
m
Period
s
Dir
31/11:30pm 19.1 ENE 5 7 1018.3 - 0.0 - - 10 - - - -
31/11:00pm 19.1 ENE 7 8 1018.4 - 0.0 - - 10 - - - -
31/10:30pm 19.1 ENE 7 9 1018.6 - 0.0 - - 10 - - - -
31/10:00pm 19.3 ENE 7 9 1018.7 - 0.0 - - 10 - - - -
31/09:30pm 19.5 ENE 10 12 1018.4 - 0.0 - - 10 - - - -
31/09:00pm 19.8 ENE 11 14 1018.3 - 0.0 - - 10 - - - -
31/08:30pm 20.0 ENE 12 17 1018.2 - 0.0 - - 10 - - - -
31/08:00pm 20.1 E 12 16 1018.0 - 0.0 - - 10 - - - -
31/07:30pm 20.0 E 12 15 1017.6 - 0.0 - - 10 - - - -
31/07:00pm 20.3 E 12 16 1017.4 - 0.0 - - 10 - - - -
31/06:30pm 20.3 E 12 16 1016.9 - 0.0 - - 10 - - - -
31/06:00pm 20.3 E 14 16 1016.5 - 0.0 - - 10 - - - -
31/05:30pm 20.4 E 12 15 1016.4 - 0.0 - - 10 - - - -
31/05:00pm 20.4 ESE 13 15 1016.3 - 0.0 - - 10 - - - -
31/04:30pm 20.5 ESE 12 14 1016.2 - 0.0 - - 10 - - - -
31/04:00pm 20.8 ESE 13 15 1016.0 - 0.0 - - 10 - - - -
31/03:30pm 21.3 E 12 15 1016.0 - 0.0 - - 10 - - - -
31/03:00pm 21.5 ESE 12 14 1016.2 - 0.0 - - 10 - - - -
31/02:30pm 22.3 ESE 10 12 1016.5 - 0.0 - - 10 - - - -
31/02:00pm 21.9 SSE 10 12 1017.0 - 0.0 - - 10 - - - -
31/01:30pm 21.9 SSE 11 13 1017.2 - 0.0 - - 10 - - - -
31/01:00pm 21.9 SSE 10 13 1017.5 - 0.0 - - 10 - - - -
31/12:30pm 21.6 SSE 11 13 1018.0 - 0.0 - - 10 - - - -
31/12:00pm 21.5 SSE 10 13 1018.3 - 0.0 - - 10 - - - -
31/11:30am 21.6 SSE 10 12 1018.5 - 0.0 - - 10 - - - -
31/11:00am 21.5 SSE 10 12 1018.9 - 0.0 - - 10 - - - -
31/10:30am 21.3 SSE 10 12 1019.2 - 0.0 - - 10 - - - -
31/10:00am 21.3 SSE 9 11 1019.5 - 0.0 - - 10 - - - -
31/09:30am 21.0 SSE 9 11 1019.6 - 0.0 - - 10 - - - -
31/09:00am 21.0 SSE 9 11 1019.5 - 0.0 - - 10 - - - -
31/08:30am 20.7 SSE 9 11 1019.6 - 0.0 - - 10 - - - -
31/08:00am 20.1 SSE 8 9 1019.4 - 0.0 - - 10 - - - -
31/07:30am 19.7 SSE 6 8 1019.1 - 0.0 - - 10 - - - -
31/07:00am 18.8 S 3 5 1018.7 - 0.0 - - 10 - - - -
31/06:30am 18.1 SSW 3 4 1018.3 - 0.0 - - 10 - - - -
31/06:00am 18.0 SSW 5 8 1017.7 - 0.0 - - 10 - - - -
31/05:30am 18.0 S 8 9 1017.4 - 0.0 - - - - - - -
31/05:00am 18.2 SSW 7 9 1017.1 - 0.0 - - 10 - - - -
31/04:30am 18.1 SSW 8 10 1017.0 - 0.0 - - 10 - - - -
31/04:00am 18.2 S 9 11 1017.0 - 0.0 - - 10 - - - -
31/03:30am 18.4 SSW 4 7 1016.9 - 0.0 - Partly cloudy 10 - - - -
31/03:00am 18.3 SW 4 5 1017.0 - 0.0 - Cloudy 10 - - - -
31/02:30am 18.0 SE 1 4 1017.2 - 0.0 - - 10 - - - -
31/02:00am 17.9 CALM 0 0 1017.5 - 0.0 - - 10 - - - -
31/01:30am 18.0 CALM 0 0 1017.8 - 0.0 - - 10 - - - -
31/01:00am 18.1 NNW 2 5 1018.1 - 0.0 - - 10 - - - -
31/12:30am 18.7 NE 1 5 1018.4 - 0.0 - - 10 - - - -
31/12:00am 18.7 ENE 4 5 1018.5 - 0.0 - - 10 - - - -
 
Date/Time
EST
Temp

°C
Wind Pressure Rain
since 9am
mm
Weather Cloud Vis
km
Sea
Height
m
Swell
Dir
 
Speed
knots
Gust
knots
hPa Trend Height
m
Period
s
Dir
30/11:30pm 18.9 NE 4 6 1018.9 - 0.0 - - 10 - - - -
30/11:00pm 19.1 NNE 4 5 1018.9 - 0.0 - - 10 - - - -
30/10:30pm 19.3 NNE 6 9 1019.0 - 0.0 - - 10 - - - -
30/10:00pm 19.4 NE 6 10 1019.0 - 0.0 - - 10 - - - -

Other Formats:

Comma delimited format used in spreadsheet applications
http://www.bom.gov.au/fwo/IDQ60701/IDQ60701.94368.axf

JavaScript Object Notation format (JSON) in row-major order
http://www.bom.gov.au/fwo/IDQ60701/IDQ60701.94368.json